Princesa De Sesimbra — CURP3 — position and weather

sailwx.info

Track history (hours):
 
Tides and Currents Weather Stations Pressure Air Temp Water Temp Dewpoint Dewpoint Depression Visibility Wind Speed Wind Dir Waves Ship Positions

Princesa De Sesimbra

Last reported at 2017-Dec-07 20:52 UTC. Time now 2017-Dec-14 06:29 UTC.
Position N 38°26' W 009°07'.

Length 20 m.

Type: Fishing. MMSI: 263424640.

Date/timePositionNaut miles runAvg speedWind from/ knotsBaromVisibWave heightAir tempDewpointWater temp
2017-Dec-07 20:52N 38°26' W 009°07'0 0.0
2017-Dec-07 13:43N 38°26' W 009°07'0 0.0
2017-Dec-07 13:31N 38°26' W 009°07'0 0.0
2017-Dec-07 13:00N 38°26' W 009°07'0 0.0
2017-Dec-07 12:30N 38°26' W 009°07'0 0.0
2017-Dec-07 12:01N 38°26' W 009°07'0 0.0
2017-Dec-07 11:30N 38°26' W 009°07'0 0.2
2017-Dec-07 11:01N 38°26' W 009°07'0 0.0
2017-Dec-07 10:30N 38°26' W 009°07'0 0.0
2017-Dec-07 10:00N 38°26' W 009°07'2 4.5
2017-Dec-07 09:31N 38°26' W 009°04'0 0.3
2017-Dec-07 09:00N 38°26' W 009°04'0 0.1
2017-Dec-07 08:30N 38°26' W 009°04'0 0.2
2017-Dec-07 08:00N 38°26' W 009°04'0 0.8
2017-Dec-07 07:31N 38°26' W 009°04'0 0.4
2017-Dec-07 07:01N 38°26' W 009°04'0 0.1
2017-Dec-07 06:31N 38°26' W 009°04'0 0.2
2017-Dec-07 06:00N 38°26' W 009°04'0 0.1
2017-Dec-07 05:31N 38°26' W 009°04'2 4.4
2017-Dec-07 05:01N 38°26' W 009°07'0 0.0
2017-Dec-07 04:31N 38°26' W 009°07'0 0.0
2017-Dec-07 04:01N 38°26' W 009°07'0 0.0
2017-Dec-07 03:31N 38°26' W 009°07'0 0.0
2017-Dec-07 03:00N 38°26' W 009°07'0 0.0
2017-Dec-07 02:30N 38°26' W 009°07'0 0.0
2017-Dec-07 02:01N 38°26' W 009°07'0 0.0
2017-Dec-07 01:30N 38°26' W 009°07'0 0.0
2017-Dec-07 01:00N 38°26' W 009°07'0 0.0
2017-Dec-07 00:31N 38°26' W 009°07'0 0.0
2017-Dec-07 00:01N 38°26' W 009°07'4 9.0
2017-Dec-06 23:31N 38°26' W 009°01'2 3.5
2017-Dec-06 23:00N 38°26' W 008°59'0 0.2
2017-Dec-06 22:31N 38°26' W 008°59'0 0.0
2017-Dec-06 22:01N 38°26' W 008°59'0 0.0
2017-Dec-06 21:30N 38°26' W 008°59'0 0.1
2017-Dec-06 21:01N 38°26' W 008°59'  
2017-Dec-03 23:12N 38°26' W 008°57'2 9.6
2017-Dec-03 22:59N 38°26' W 008°59'5 9.6
2017-Dec-03 22:30N 38°26' W 009°05'1 2.8
2017-Dec-03 22:00N 38°26' W 009°07'  
2017-Nov-30 16:34N 38°26' W 009°07'0 0.1
2017-Nov-30 16:30N 38°26' W 009°07'0 0.3
2017-Nov-30 16:00N 38°26' W 009°07'0 0.3
2017-Nov-30 15:30N 38°26' W 009°07'0 0.0
2017-Nov-30 15:00N 38°26' W 009°07'3 5.1
2017-Nov-30 14:31N 38°25' W 009°04'510.2
2017-Nov-30 14:00N 38°23' W 008°58'510.0
2017-Nov-30 13:30N 38°20' W 008°52'4 8.3
2017-Nov-30 13:00N 38°18' W 008°48'0 0.7
2017-Nov-30 12:30N 38°19' W 008°48'0 0.3
2017-Nov-30 12:00N 38°19' W 008°48'4 3.9
2017-Nov-30 10:55N 38°22' W 008°51'2 0.5
2017-Nov-30 06:16N 38°21' W 008°49'0 0.2
2017-Nov-30 05:56N 38°21' W 008°49'0 0.0
2017-Nov-30 05:28N 38°21' W 008°49'0 0.0
2017-Nov-30 05:00N 38°21' W 008°49'0 0.0
2017-Nov-30 04:24N 38°21' W 008°49'0 0.0
2017-Nov-30 04:00N 38°21' W 008°49'0 0.0
2017-Nov-30 03:24N 38°21' W 008°49'0 0.0
2017-Nov-30 03:00N 38°21' W 008°49'0 0.0
2017-Nov-30 02:21N 38°21' W 008°49'5 2.0
2017-Nov-29 23:58N 38°23' W 008°54'510.5
2017-Nov-29 23:30N 38°25' W 008°60'510.4
2017-Nov-29 23:00N 38°26' W 009°06'0 0.1
2017-Nov-29 19:55N 38°26' W 009°07'0 0.0
2017-Nov-29 19:30N 38°26' W 009°07'0 0.0
2017-Nov-29 19:00N 38°26' W 009°07'0 0.0
2017-Nov-29 18:27N 38°26' W 009°07'0 0.0
2017-Nov-29 18:00N 38°26' W 009°07'0 0.0
2017-Nov-29 17:30N 38°26' W 009°07'0 0.0
2017-Nov-29 16:59N 38°26' W 009°07'0 0.0
2017-Nov-29 16:30N 38°26' W 009°07'0 0.1
2017-Nov-29 16:00N 38°26' W 009°07'0 0.0
2017-Nov-29 15:30N 38°26' W 009°07'0 0.4
2017-Nov-29 15:00N 38°26' W 009°07'510.3
2017-Nov-29 14:29N 38°25' W 008°60'6 1.8
2017-Nov-29 11:04N 38°23' W 008°52'0 7.0
2017-Nov-29 11:00N 38°23' W 008°52'2 0.3
2017-Nov-29 05:26N 38°23' W 008°55'410.1
2017-Nov-29 05:00N 38°24' W 008°60'510.0
2017-Nov-29 04:30N 38°26' W 009°06'1 2.1
2017-Nov-29 04:00N 38°26' W 009°07'0 0.0
2017-Nov-29 03:30N 38°26' W 009°07'0 0.3
2017-Nov-29 03:00N 38°26' W 009°07'510.3
2017-Nov-29 02:30N 38°25' W 009°00'2 0.3
2017-Nov-28 21:48N 38°26' W 008°59'3 9.2
2017-Nov-28 21:31N 38°26' W 009°03'3 6.6
2017-Nov-28 21:01N 38°26' W 009°07'0 0.0
2017-Nov-28 20:30N 38°26' W 009°07'0 0.0
2017-Nov-28 13:35N 38°26' W 009°07'0 0.0
2017-Nov-28 13:30N 38°26' W 009°07'0 0.1
2017-Nov-28 13:00N 38°26' W 009°07'0 0.0
2017-Nov-28 12:30N 38°26' W 009°07'0 0.0
2017-Nov-28 11:58N 38°26' W 009°07'0 0.0
2017-Nov-28 11:30N 38°26' W 009°07'4 8.8
2017-Nov-28 11:00N 38°25' W 009°02'510.2
2017-Nov-28 10:29N 38°24' W 008°55'2 3.9
2017-Nov-28 10:00N 38°23' W 008°53'0 0.0
2017-Nov-28 00:12N 38°23' W 008°52'2 9.0
2017-Nov-27 23:56N 38°25' W 008°54'3 7.8
2017-Nov-27 23:30N 38°26' W 008°58'0 0.8
2017-Nov-27 22:59N 38°26' W 008°59'4 8.7
2017-Nov-27 22:30N 38°26' W 009°04'2 4.3
2017-Nov-27 21:59N 38°26' W 009°07'  
Track history (hours):
 
Tides and Currents Weather Stations Pressure Air Temp Water Temp Dewpoint Dewpoint Depression Visibility Wind Speed Wind Dir Waves Ship Positions

Princesa De Sesimbra

Last reported at 2017-Dec-07 20:52 UTC. Time now 2017-Dec-14 06:29 UTC.
Position N 38°26' W 009°07'.

Length 20 m.

Type: Fishing. MMSI: 263424640.

Date/timePositionNaut miles runAvg speedWind from/ knotsBaromVisibWave heightAir tempDewpointWater temp
2017-Dec-07 20:52N 38°26' W 009°07'0 0.0
2017-Dec-07 13:43N 38°26' W 009°07'0 0.0
2017-Dec-07 13:31N 38°26' W 009°07'0 0.0
2017-Dec-07 13:00N 38°26' W 009°07'0 0.0
2017-Dec-07 12:30N 38°26' W 009°07'0 0.0
2017-Dec-07 12:01N 38°26' W 009°07'0 0.0
2017-Dec-07 11:30N 38°26' W 009°07'0 0.2
2017-Dec-07 11:01N 38°26' W 009°07'0 0.0
2017-Dec-07 10:30N 38°26' W 009°07'0 0.0
2017-Dec-07 10:00N 38°26' W 009°07'2 4.5
2017-Dec-07 09:31N 38°26' W 009°04'0 0.3
2017-Dec-07 09:00N 38°26' W 009°04'0 0.1
2017-Dec-07 08:30N 38°26' W 009°04'0 0.2
2017-Dec-07 08:00N 38°26' W 009°04'0 0.8
2017-Dec-07 07:31N 38°26' W 009°04'0 0.4
2017-Dec-07 07:01N 38°26' W 009°04'0 0.1
2017-Dec-07 06:31N 38°26' W 009°04'0 0.2
2017-Dec-07 06:00N 38°26' W 009°04'0 0.1
2017-Dec-07 05:31N 38°26' W 009°04'2 4.4
2017-Dec-07 05:01N 38°26' W 009°07'0 0.0
2017-Dec-07 04:31N 38°26' W 009°07'0 0.0
2017-Dec-07 04:01N 38°26' W 009°07'0 0.0
2017-Dec-07 03:31N 38°26' W 009°07'0 0.0
2017-Dec-07 03:00N 38°26' W 009°07'0 0.0
2017-Dec-07 02:30N 38°26' W 009°07'0 0.0
2017-Dec-07 02:01N 38°26' W 009°07'0 0.0
2017-Dec-07 01:30N 38°26' W 009°07'0 0.0
2017-Dec-07 01:00N 38°26' W 009°07'0 0.0
2017-Dec-07 00:31N 38°26' W 009°07'0 0.0
2017-Dec-07 00:01N 38°26' W 009°07'4 9.0
2017-Dec-06 23:31N 38°26' W 009°01'2 3.5
2017-Dec-06 23:00N 38°26' W 008°59'0 0.2
2017-Dec-06 22:31N 38°26' W 008°59'0 0.0
2017-Dec-06 22:01N 38°26' W 008°59'0 0.0
2017-Dec-06 21:30N 38°26' W 008°59'0 0.1
2017-Dec-06 21:01N 38°26' W 008°59'  
2017-Dec-03 23:12N 38°26' W 008°57'2 9.6
2017-Dec-03 22:59N 38°26' W 008°59'5 9.6
2017-Dec-03 22:30N 38°26' W 009°05'1 2.8
2017-Dec-03 22:00N 38°26' W 009°07'  
2017-Nov-30 16:34N 38°26' W 009°07'0 0.1
2017-Nov-30 16:30N 38°26' W 009°07'0 0.3
2017-Nov-30 16:00N 38°26' W 009°07'0 0.3
2017-Nov-30 15:30N 38°26' W 009°07'0 0.0
2017-Nov-30 15:00N 38°26' W 009°07'3 5.1
2017-Nov-30 14:31N 38°25' W 009°04'510.2
2017-Nov-30 14:00N 38°23' W 008°58'510.0
2017-Nov-30 13:30N 38°20' W 008°52'4 8.3
2017-Nov-30 13:00N 38°18' W 008°48'0 0.7
2017-Nov-30 12:30N 38°19' W 008°48'0 0.3
2017-Nov-30 12:00N 38°19' W 008°48'4 3.9
2017-Nov-30 10:55N 38°22' W 008°51'2 0.5
2017-Nov-30 06:16N 38°21' W 008°49'0 0.2
2017-Nov-30 05:56N 38°21' W 008°49'0 0.0
2017-Nov-30 05:28N 38°21' W 008°49'0 0.0
2017-Nov-30 05:00N 38°21' W 008°49'0 0.0
2017-Nov-30 04:24N 38°21' W 008°49'0 0.0
2017-Nov-30 04:00N 38°21' W 008°49'0 0.0
2017-Nov-30 03:24N 38°21' W 008°49'0 0.0
2017-Nov-30 03:00N 38°21' W 008°49'0 0.0
2017-Nov-30 02:21N 38°21' W 008°49'5 2.0
2017-Nov-29 23:58N 38°23' W 008°54'510.5
2017-Nov-29 23:30N 38°25' W 008°60'510.4
2017-Nov-29 23:00N 38°26' W 009°06'0 0.1
2017-Nov-29 19:55N 38°26' W 009°07'0 0.0
2017-Nov-29 19:30N 38°26' W 009°07'0 0.0
2017-Nov-29 19:00N 38°26' W 009°07'0 0.0
2017-Nov-29 18:27N 38°26' W 009°07'0 0.0
2017-Nov-29 18:00N 38°26' W 009°07'0 0.0
2017-Nov-29 17:30N 38°26' W 009°07'0 0.0
2017-Nov-29 16:59N 38°26' W 009°07'0 0.0
2017-Nov-29 16:30N 38°26' W 009°07'0 0.1
2017-Nov-29 16:00N 38°26' W 009°07'0 0.0
2017-Nov-29 15:30N 38°26' W 009°07'0 0.4
2017-Nov-29 15:00N 38°26' W 009°07'510.3
2017-Nov-29 14:29N 38°25' W 008°60'6 1.8
2017-Nov-29 11:04N 38°23' W 008°52'0 7.0
2017-Nov-29 11:00N 38°23' W 008°52'2 0.3
2017-Nov-29 05:26N 38°23' W 008°55'410.1
2017-Nov-29 05:00N 38°24' W 008°60'510.0
2017-Nov-29 04:30N 38°26' W 009°06'1 2.1
2017-Nov-29 04:00N 38°26' W 009°07'0 0.0
2017-Nov-29 03:30N 38°26' W 009°07'0 0.3
2017-Nov-29 03:00N 38°26' W 009°07'510.3
2017-Nov-29 02:30N 38°25' W 009°00'2 0.3
2017-Nov-28 21:48N 38°26' W 008°59'3 9.2
2017-Nov-28 21:31N 38°26' W 009°03'3 6.6
2017-Nov-28 21:01N 38°26' W 009°07'0 0.0
2017-Nov-28 20:30N 38°26' W 009°07'0 0.0
2017-Nov-28 13:35N 38°26' W 009°07'0 0.0
2017-Nov-28 13:30N 38°26' W 009°07'0 0.1
2017-Nov-28 13:00N 38°26' W 009°07'0 0.0
2017-Nov-28 12:30N 38°26' W 009°07'0 0.0
2017-Nov-28 11:58N 38°26' W 009°07'0 0.0
2017-Nov-28 11:30N 38°26' W 009°07'4 8.8
2017-Nov-28 11:00N 38°25' W 009°02'510.2
2017-Nov-28 10:29N 38°24' W 008°55'2 3.9
2017-Nov-28 10:00N 38°23' W 008°53'0 0.0
2017-Nov-28 00:12N 38°23' W 008°52'2 9.0
2017-Nov-27 23:56N 38°25' W 008°54'3 7.8
2017-Nov-27 23:30N 38°26' W 008°58'0 0.8
2017-Nov-27 22:59N 38°26' W 008°59'4 8.7
2017-Nov-27 22:30N 38°26' W 009°04'2 4.3
2017-Nov-27 21:59N 38°26' W 009°07'  

Dump ship's entire track history